Elmendorf Air Force Base, AK (99506)

11:37 PM AKDT on September 02, 2015 (GMT -0800)
KL7AIR | | Change Station
CLOSE
Current Station
Personal Weather Station
Location: Elmendorf AFB, AK
Elevation: 130 ft
Nearby Weather Stations

Elev 130 ft 61.27 °N, 149.79 °W | Updated 20 seconds ago

Mostly Cloudy
Mostly Cloudy
54.1 °F
Feels Like 54.1 °F
N
2.3
Wind Variable Wind from East
Gusts 3.8 mph

Today
High -- | Low -- °F
--% Chance of Precip.
Yesterday
High -- | Low -- °F
Precip. -- in
6:53 AM 9:02 PM
Waning Gibbous, 73% visible
Pressure 29.95 in
Visibility 10.0 miles
Clouds Mostly Cloudy 16000 ft
Dew Point 44 °F
Humidity 69%
Rainfall 0.00 in
Snow Depth Not available.
UV 0 out of 12
Pollen Not available.
Air Quality Not available.
Flu Activity Not available.
METAR PAED 030658Z AUTO 02003KT 10SM BKN160 11/07 A2996 RMK AO2 SLP141 T01140072
Pressure 29.95 in
Visibility 10.0 miles
Clouds Mostly Cloudy 16000 ft
Dew Point 44 °F
Humidity 69%
Rainfall 0.00 in
Snow Depth Not available.
UV 0 out of 12
Pollen Not available.
Air Quality Not available.
Flu Activity Not available.
METAR PAED 030658Z AUTO 02003KT 10SM BKN160 11/07 A2996 RMK AO2 SLP141 T01140072

10-Day Weather Forecast

×

Almanac

Astronomy

Sep. 02, 2015 Rise Set
Actual Time
Civil Twilight
Nautical Twilight
Astronomical Twilight
Moon
Length of Visible Light
Length of Day
Tomorrow will be .
, % of the Moon is Illuminated

Today's Extremes

State Highs State Lows

Community

WunderPhotos

Upload Photos

1,851,919 photos uploaded!

WunderBlogs® & News

Nearby

Air Quality

  Air Quality AQ Index Pollutant
Not available.

Snow Depth

Station Depth Elevation

Earthquake Activity

City Distance Mag. Time & Date
Minimum magnitude displayed is 2.5.

Coastal Water Temperatures

Place Temperature

Stations

Nearby Weather Stations

Station Location Temp. Windchill Dew Point Humidity Wind Precip. Elev Updated Type